createdAt,value
2022-11-02T00:00:25.425Z,14.12
2022-11-02T00:01:25.505Z,14.20
2022-11-02T00:02:25.539Z,14.12
2022-11-02T00:03:25.424Z,14.12
2022-11-02T00:04:25.383Z,14.12
2022-11-02T00:05:25.382Z,14.12
2022-11-02T00:06:25.361Z,14.10
2022-11-02T00:07:25.368Z,14.11
2022-11-02T00:08:25.357Z,14.11
2022-11-02T00:09:25.337Z,14.12
2022-11-02T00:10:25.355Z,14.08
2022-11-02T00:11:25.303Z,14.12
2022-11-02T00:12:25.319Z,14.14
2022-11-02T00:13:25.284Z,14.12
2022-11-02T00:14:25.290Z,14.14
2022-11-02T00:15:25.262Z,14.07
2022-11-02T00:16:25.251Z,14.11
2022-11-02T00:17:25.263Z,14.15
2022-11-02T00:18:25.226Z,14.10
2022-11-02T00:19:25.231Z,14.07
2022-11-02T00:20:25.216Z,14.17
2022-11-02T00:21:25.189Z,14.18
2022-11-02T00:22:25.202Z,14.15
2022-11-02T00:23:25.169Z,14.05
2022-11-02T00:24:25.154Z,14.20
2022-11-02T00:25:25.169Z,14.20
2022-11-02T00:26:25.183Z,14.15
2022-11-02T00:27:25.121Z,14.17
2022-11-02T00:28:25.117Z,14.15
2022-11-02T00:29:26.948Z,14.22
2022-11-02T00:30:25.084Z,14.17
2022-11-02T00:31:25.082Z,14.11
2022-11-02T00:32:25.097Z,14.17
2022-11-02T00:33:25.052Z,14.15
2022-11-02T00:34:25.061Z,14.17
2022-11-02T00:35:25.028Z,14.18
2022-11-02T00:36:25.056Z,14.17
2022-11-02T00:37:25.049Z,14.25
2022-11-02T00:38:25.005Z,14.22
2022-11-02T00:39:24.984Z,14.20
2022-11-02T00:40:24.968Z,14.25
2022-11-02T00:41:24.967Z,14.18
2022-11-02T00:42:24.970Z,14.25
2022-11-02T00:43:24.937Z,14.20
2022-11-02T00:44:24.997Z,14.23
2022-11-02T00:45:24.909Z,14.25
2022-11-02T00:46:24.904Z,14.18
2022-11-02T00:47:24.897Z,14.26
2022-11-02T00:48:24.875Z,14.26
2022-11-02T00:49:24.923Z,14.18
2022-11-02T00:50:24.870Z,14.26
2022-11-02T00:51:24.858Z,14.22
2022-11-02T00:52:24.835Z,14.29
2022-11-02T00:53:24.820Z,14.30
2022-11-02T00:54:27.672Z,14.25
2022-11-02T00:55:24.796Z,14.29
2022-11-02T00:56:24.821Z,14.35
2022-11-02T00:57:24.783Z,14.30
2022-11-02T00:58:24.795Z,14.30
2022-11-02T00:59:24.749Z,14.23
2022-11-02T01:00:24.745Z,14.22
2022-11-02T01:01:24.866Z,14.23
2022-11-02T01:02:24.918Z,14.22
2022-11-02T01:03:24.713Z,14.30
2022-11-02T01:04:24.709Z,14.25
2022-11-02T01:05:24.689Z,14.28
2022-11-02T01:06:24.674Z,14.29
2022-11-02T01:07:24.662Z,14.30
2022-11-02T01:08:24.701Z,14.32
2022-11-02T01:09:24.640Z,14.22
2022-11-02T01:10:24.632Z,14.28
2022-11-02T01:11:24.638Z,14.36
2022-11-02T01:12:24.607Z,14.26
2022-11-02T01:13:24.596Z,14.32
2022-11-02T01:14:24.639Z,14.28
2022-11-02T01:15:24.573Z,14.28
2022-11-02T01:16:24.562Z,14.26
2022-11-02T01:17:24.561Z,14.25
2022-11-02T01:18:24.543Z,14.33
2022-11-02T01:19:24.631Z,14.28
2022-11-02T01:20:24.529Z,14.25
2022-11-02T01:21:24.500Z,14.20
2022-11-02T01:22:24.504Z,14.35
2022-11-02T01:23:24.500Z,14.29
2022-11-02T01:24:24.473Z,14.26
2022-11-02T01:25:24.453Z,14.29
2022-11-02T01:26:24.461Z,14.29
2022-11-02T01:27:24.431Z,14.35
2022-11-02T01:28:24.443Z,14.26
2022-11-02T01:29:24.420Z,14.22
2022-11-02T01:30:24.421Z,14.25
2022-11-02T01:31:24.411Z,14.28
2022-11-02T01:32:24.409Z,14.30
2022-11-02T01:33:24.389Z,14.25
2022-11-02T01:34:24.380Z,14.25
2022-11-02T01:35:24.359Z,14.23
2022-11-02T01:36:24.344Z,14.22
2022-11-02T01:37:24.316Z,14.29
2022-11-02T01:38:24.321Z,14.25
2022-11-02T01:39:24.300Z,14.28
2022-11-02T01:40:24.283Z,14.23
2022-11-02T01:41:24.275Z,14.18
2022-11-02T01:42:24.261Z,14.23
2022-11-02T01:43:24.247Z,14.23
2022-11-02T01:44:24.272Z,14.22
2022-11-02T01:45:24.263Z,14.18
2022-11-02T01:46:24.246Z,14.26
2022-11-02T01:47:24.205Z,14.26
2022-11-02T01:48:24.191Z,14.26
2022-11-02T01:49:24.183Z,14.23
2022-11-02T01:50:24.206Z,14.25
2022-11-02T01:51:24.160Z,14.20
2022-11-02T01:52:24.150Z,14.15
2022-11-02T01:53:24.140Z,14.20
2022-11-02T01:54:24.151Z,14.20
2022-11-02T01:55:24.112Z,14.15
2022-11-02T01:56:24.197Z,14.25
2022-11-02T01:57:24.095Z,14.20
2022-11-02T01:58:24.084Z,14.18
2022-11-02T01:59:24.079Z,14.17
2022-11-02T02:00:24.054Z,14.20
2022-11-02T02:01:24.243Z,14.20
2022-11-02T02:02:24.230Z,14.17
2022-11-02T02:03:24.017Z,14.17
2022-11-02T02:04:24.017Z,14.23
2022-11-02T02:05:23.991Z,14.10
2022-11-02T02:06:23.993Z,14.17
2022-11-02T02:07:23.976Z,14.20
2022-11-02T02:08:23.984Z,14.14
2022-11-02T02:09:23.959Z,14.14
2022-11-02T02:10:23.940Z,14.17
2022-11-02T02:11:23.954Z,14.15
2022-11-02T02:12:23.920Z,14.15
2022-11-02T02:13:23.905Z,14.20
2022-11-02T02:14:23.929Z,14.20
2022-11-02T02:15:23.884Z,14.23
2022-11-02T02:16:23.867Z,14.18
2022-11-02T02:17:23.885Z,14.23
2022-11-02T02:18:23.876Z,14.18
2022-11-02T02:19:23.864Z,14.18
2022-11-02T02:20:23.941Z,14.14
2022-11-02T02:21:23.814Z,14.15
2022-11-02T02:22:23.806Z,14.22
2022-11-02T02:23:23.845Z,14.22
2022-11-02T02:24:23.816Z,14.23
2022-11-02T02:25:23.774Z,14.18
2022-11-02T02:26:23.793Z,14.20
2022-11-02T02:27:23.750Z,14.20
2022-11-02T02:28:23.738Z,14.26
2022-11-02T02:29:23.720Z,14.22
2022-11-02T02:30:23.717Z,14.22
2022-11-02T02:31:23.709Z,14.22
2022-11-02T02:32:23.726Z,14.17
2022-11-02T02:33:23.706Z,14.22
2022-11-02T02:34:23.691Z,14.20
2022-11-02T02:35:23.659Z,14.23
2022-11-02T02:36:23.653Z,14.17
2022-11-02T02:37:23.640Z,14.20
2022-11-02T02:38:23.638Z,14.26
2022-11-02T02:39:23.612Z,14.18
2022-11-02T02:40:23.600Z,14.22
2022-11-02T02:41:23.589Z,14.17
2022-11-02T02:42:23.581Z,14.20
2022-11-02T02:43:23.564Z,14.20
2022-11-02T02:44:23.568Z,14.18
2022-11-02T02:45:23.584Z,14.25
2022-11-02T02:46:23.531Z,14.26
2022-11-02T02:47:23.517Z,14.20
2022-11-02T02:48:23.510Z,14.32
2022-11-02T02:49:23.526Z,14.14
2022-11-02T02:50:23.514Z,14.25
2022-11-02T02:51:23.473Z,14.28
2022-11-02T02:52:23.468Z,14.23
2022-11-02T02:53:23.449Z,14.29
2022-11-02T02:54:23.444Z,14.22
2022-11-02T02:55:23.448Z,14.25
2022-11-02T02:56:23.431Z,14.25
2022-11-02T02:57:23.400Z,14.26
2022-11-02T02:58:23.398Z,14.22
2022-11-02T02:59:23.384Z,14.35
2022-11-02T03:00:23.369Z,14.22
2022-11-02T03:01:23.497Z,14.29
2022-11-02T03:02:23.474Z,14.29
2022-11-02T03:03:23.336Z,14.32
2022-11-02T03:04:23.327Z,14.28
2022-11-02T03:05:23.309Z,14.30
2022-11-02T03:06:23.328Z,14.28
2022-11-02T03:07:23.290Z,14.25
2022-11-02T03:08:23.376Z,14.23
2022-11-02T03:09:23.267Z,14.20
2022-11-02T03:10:23.269Z,14.28
2022-11-02T03:11:23.242Z,14.32
2022-11-02T03:12:23.235Z,14.23
2022-11-02T03:13:23.226Z,14.33
2022-11-02T03:14:23.348Z,14.25
2022-11-02T03:15:23.202Z,14.30
2022-11-02T03:16:23.183Z,14.25
2022-11-02T03:17:23.193Z,14.29
2022-11-02T03:18:23.237Z,14.33
2022-11-02T03:19:23.156Z,14.30
2022-11-02T03:20:23.182Z,14.29
2022-11-02T03:21:23.136Z,14.20
2022-11-02T03:22:23.158Z,14.29
2022-11-02T03:23:23.109Z,14.23
2022-11-02T03:24:23.102Z,14.30
2022-11-02T03:25:23.084Z,14.23
2022-11-02T03:26:23.115Z,14.25
2022-11-02T03:27:23.066Z,14.20
2022-11-02T03:28:23.089Z,14.22
2022-11-02T03:29:23.069Z,14.26
2022-11-02T03:30:23.058Z,14.25
2022-11-02T03:31:23.012Z,14.26
2022-11-02T03:32:23.151Z,14.18
2022-11-02T03:33:22.998Z,14.17
2022-11-02T03:34:22.999Z,14.12
2022-11-02T03:35:22.974Z,14.12
2022-11-02T03:36:22.971Z,14.15
2022-11-02T03:37:22.946Z,14.10
2022-11-02T03:38:23.024Z,14.04
2022-11-02T03:39:22.959Z,14.08
2022-11-02T03:40:22.914Z,14.04
2022-11-02T03:41:22.913Z,14.07
2022-11-02T03:42:22.944Z,14.04
2022-11-02T03:43:22.878Z,13.99
2022-11-02T03:44:22.921Z,14.03
2022-11-02T03:45:22.879Z,14.04
2022-11-02T03:46:22.850Z,14.04
2022-11-02T03:47:22.832Z,14.07
2022-11-02T03:48:22.821Z,14.07
2022-11-02T03:49:22.808Z,14.05
2022-11-02T03:50:22.869Z,14.00
2022-11-02T03:51:22.784Z,14.10
2022-11-02T03:52:22.778Z,14.00
2022-11-02T03:53:22.778Z,13.97
2022-11-02T03:54:22.781Z,14.04
2022-11-02T03:55:22.745Z,14.07
2022-11-02T03:56:22.744Z,14.10
2022-11-02T03:57:22.812Z,14.08
2022-11-02T03:58:22.708Z,14.07
2022-11-02T03:59:22.695Z,14.08
2022-11-02T04:00:22.692Z,14.10
2022-11-02T04:01:22.806Z,14.10
2022-11-02T04:02:22.818Z,14.10
2022-11-02T04:03:22.650Z,14.05
2022-11-02T04:04:22.638Z,14.08
2022-11-02T04:05:22.626Z,14.07
2022-11-02T04:06:22.619Z,14.10
2022-11-02T04:07:22.632Z,14.10
2022-11-02T04:08:22.661Z,14.11
2022-11-02T04:09:22.580Z,14.05
2022-11-02T04:10:22.628Z,14.04
2022-11-02T04:11:22.561Z,14.11
2022-11-02T04:12:22.640Z,14.08
2022-11-02T04:13:22.536Z,14.04
2022-11-02T04:14:22.544Z,14.07
2022-11-02T04:15:22.509Z,14.04
2022-11-02T04:16:27.800Z,14.04
2022-11-02T04:17:23.524Z,14.07
2022-11-02T04:18:22.476Z,14.04
2022-11-02T04:19:22.471Z,14.00
2022-11-02T04:20:22.482Z,14.07
2022-11-02T04:21:22.469Z,14.03
2022-11-02T04:22:22.436Z,14.07
2022-11-02T04:23:22.422Z,14.14
2022-11-02T04:24:22.425Z,14.10
2022-11-02T04:25:22.411Z,14.07
2022-11-02T04:26:22.480Z,14.07
2022-11-02T04:27:22.374Z,14.04
2022-11-02T04:28:22.383Z,14.00
2022-11-02T04:29:22.351Z,13.97
2022-11-02T04:30:22.374Z,14.03
2022-11-02T04:31:22.348Z,14.12
2022-11-02T04:32:22.350Z,13.99
2022-11-02T04:33:22.311Z,14.00
2022-11-02T04:34:22.299Z,14.04
2022-11-02T04:35:22.300Z,14.00
2022-11-02T04:36:22.278Z,13.97
2022-11-02T04:37:22.351Z,13.90
2022-11-02T04:38:22.365Z,13.95
2022-11-02T04:39:22.232Z,13.89
2022-11-02T04:40:22.236Z,13.90
2022-11-02T04:41:22.243Z,13.89
2022-11-02T04:42:22.251Z,13.92
2022-11-02T04:43:22.197Z,13.90
2022-11-02T04:44:24.913Z,13.90
2022-11-02T04:45:23.173Z,13.89
2022-11-02T04:46:22.156Z,13.83
2022-11-02T04:47:22.163Z,13.87
2022-11-02T04:48:22.143Z,13.83
2022-11-02T04:49:22.143Z,13.89
2022-11-02T04:50:22.165Z,13.87
2022-11-02T04:51:22.118Z,13.92
2022-11-02T04:52:22.119Z,13.90
2022-11-02T04:53:22.083Z,13.95
2022-11-02T04:54:22.063Z,13.85
2022-11-02T04:55:22.059Z,13.86
2022-11-02T04:56:22.141Z,13.86
2022-11-02T04:57:22.029Z,13.87
2022-11-02T04:58:22.081Z,13.79
2022-11-02T04:59:22.018Z,13.77
2022-11-02T05:00:21.998Z,13.86
2022-11-02T05:01:22.100Z,13.81
2022-11-02T05:02:22.170Z,13.78
2022-11-02T05:03:21.980Z,13.77
2022-11-02T05:04:22.070Z,13.75
2022-11-02T05:05:21.935Z,13.67
2022-11-02T05:06:21.931Z,13.65
2022-11-02T05:07:21.917Z,13.72
2022-11-02T05:08:21.940Z,13.70
2022-11-02T05:09:21.963Z,13.72
2022-11-02T05:10:21.906Z,13.68
2022-11-02T05:11:21.876Z,13.72
2022-11-02T05:12:26.591Z,13.71
2022-11-02T05:13:22.871Z,13.72
2022-11-02T05:14:21.867Z,13.74
2022-11-02T05:15:21.828Z,13.68
2022-11-02T05:16:21.962Z,13.74
2022-11-02T05:17:21.802Z,13.72
2022-11-02T05:19:21.802Z,13.67
2022-11-02T05:20:21.885Z,13.65
2022-11-02T05:21:21.788Z,13.71
2022-11-02T05:22:21.756Z,13.74
2022-11-02T05:23:21.746Z,13.68
2022-11-02T05:24:21.752Z,13.72
2022-11-02T05:25:21.786Z,13.77
2022-11-02T05:26:21.703Z,13.70
2022-11-02T05:27:21.700Z,13.72
2022-11-02T05:28:21.686Z,13.67
2022-11-02T05:29:21.665Z,13.71
2022-11-02T05:30:21.687Z,13.68
2022-11-02T05:31:21.764Z,13.67
2022-11-02T05:32:21.642Z,13.63
2022-11-02T05:33:24.478Z,13.60
2022-11-02T05:34:22.614Z,13.68
2022-11-02T05:35:21.608Z,13.65
2022-11-02T05:36:21.616Z,13.59
2022-11-02T05:37:21.610Z,13.62
2022-11-02T05:38:21.571Z,13.67
2022-11-02T05:39:21.562Z,13.60
2022-11-02T05:40:21.545Z,13.68
2022-11-02T05:41:21.538Z,13.67
2022-11-02T05:42:21.526Z,13.67
2022-11-02T05:43:21.544Z,13.68
2022-11-02T05:44:21.505Z,13.70
2022-11-02T05:45:24.492Z,13.74
2022-11-02T05:46:21.506Z,13.75
2022-11-02T05:47:21.512Z,13.71
2022-11-02T05:48:21.456Z,13.72
2022-11-02T05:49:21.631Z,13.77
2022-11-02T05:50:21.478Z,13.78
2022-11-02T05:51:21.438Z,13.85
2022-11-02T05:52:21.416Z,13.74
2022-11-02T05:53:21.403Z,13.92
2022-11-02T05:54:21.389Z,13.92
2022-11-02T05:55:21.408Z,13.75
2022-11-02T05:56:24.990Z,13.93
2022-11-02T05:57:21.444Z,13.92
2022-11-02T05:58:21.345Z,13.85
2022-11-02T05:59:21.442Z,13.89
2022-11-02T06:00:21.325Z,13.90
2022-11-02T06:01:21.389Z,13.90
2022-11-02T06:02:23.341Z,13.96
2022-11-02T06:03:21.293Z,14.00
2022-11-02T06:04:21.341Z,13.96
2022-11-02T06:05:21.412Z,13.99
2022-11-02T06:06:21.255Z,14.07
2022-11-02T06:07:21.253Z,14.05
2022-11-02T06:08:21.232Z,14.03
2022-11-02T06:09:21.217Z,14.05
2022-11-02T06:10:21.227Z,14.10
2022-11-02T06:11:21.193Z,14.08
2022-11-02T06:12:21.184Z,14.15
2022-11-02T06:13:21.201Z,14.11
2022-11-02T06:14:21.304Z,14.12
2022-11-02T06:15:21.152Z,14.14
2022-11-02T06:16:23.303Z,14.17
2022-11-02T06:17:21.159Z,14.22
2022-11-02T06:18:21.141Z,14.20
2022-11-02T06:19:21.135Z,14.20
2022-11-02T06:20:21.085Z,14.28
2022-11-02T06:21:21.088Z,14.25
2022-11-02T06:22:21.071Z,14.18
2022-11-02T06:23:21.059Z,14.22
2022-11-02T06:24:21.070Z,14.28
2022-11-02T06:25:21.058Z,14.20
2022-11-02T06:26:21.027Z,14.23
2022-11-02T06:27:21.022Z,14.32
2022-11-02T06:28:21.001Z,14.33
2022-11-02T06:29:21.006Z,14.33
2022-11-02T06:30:20.979Z,14.32
2022-11-02T06:31:21.018Z,14.33
2022-11-02T06:32:20.956Z,14.36
2022-11-02T06:33:20.937Z,14.44
2022-11-02T06:34:20.953Z,14.37
2022-11-02T06:35:20.919Z,14.47
2022-11-02T06:36:20.910Z,14.37
2022-11-02T06:37:20.918Z,14.37
2022-11-02T06:38:20.894Z,14.41
2022-11-02T06:39:20.900Z,14.36
2022-11-02T06:40:22.733Z,14.41
2022-11-02T06:41:20.904Z,14.33
2022-11-02T06:42:20.859Z,14.35
2022-11-02T06:43:21.260Z,14.32
2022-11-02T06:44:20.859Z,14.30
2022-11-02T06:45:20.807Z,14.36
2022-11-02T06:46:20.802Z,14.44
2022-11-02T06:47:20.785Z,14.32
2022-11-02T06:48:20.831Z,14.44
2022-11-02T06:49:20.801Z,14.33
2022-11-02T06:50:20.781Z,14.40
2022-11-02T06:51:20.736Z,14.30
2022-11-02T06:52:20.735Z,14.45
2022-11-02T06:53:20.730Z,14.44
2022-11-02T06:54:20.731Z,14.62
2022-11-02T06:55:20.775Z,14.59
2022-11-02T06:56:20.678Z,14.55
2022-11-02T06:57:21.596Z,14.73
2022-11-02T06:58:20.667Z,14.78
2022-11-02T06:59:20.651Z,14.86
2022-11-02T07:00:23.654Z,14.97
2022-11-02T07:01:20.869Z,14.89
2022-11-02T07:02:20.653Z,15.03
2022-11-02T07:03:20.621Z,15.10
2022-11-02T07:04:20.594Z,15.19
2022-11-02T07:05:20.585Z,15.22
2022-11-02T07:06:20.607Z,15.39
2022-11-02T07:07:20.591Z,15.44
2022-11-02T07:08:20.555Z,15.52
2022-11-02T07:09:20.656Z,15.57
2022-11-02T07:10:20.549Z,15.59
2022-11-02T07:11:20.750Z,15.55
2022-11-02T07:12:23.001Z,15.64
2022-11-02T07:13:20.594Z,15.73
2022-11-02T07:14:20.494Z,15.72
2022-11-02T07:15:20.464Z,15.68
2022-11-02T07:16:20.453Z,15.72
2022-11-02T07:17:20.507Z,15.73
2022-11-02T07:18:20.432Z,15.62
2022-11-02T07:19:20.476Z,15.73
2022-11-02T07:20:20.410Z,15.65
2022-11-02T07:22:20.405Z,15.61
2022-11-02T07:23:20.398Z,15.65
2022-11-02T07:24:20.390Z,15.68
2022-11-02T07:25:20.622Z,15.72
2022-11-02T07:26:20.345Z,15.75
2022-11-02T07:27:20.353Z,15.73
2022-11-02T07:28:20.314Z,15.72
2022-11-02T07:29:20.311Z,15.65
2022-11-02T07:30:20.308Z,15.64
2022-11-02T07:31:20.341Z,15.59
2022-11-02T07:32:20.271Z,15.58
2022-11-02T07:33:20.253Z,15.49
2022-11-02T07:34:20.248Z,15.44
2022-11-02T07:35:20.235Z,15.35
2022-11-02T07:36:20.228Z,15.46
2022-11-02T07:37:20.260Z,15.39
2022-11-02T07:38:20.263Z,15.35
2022-11-02T07:39:20.188Z,15.33
2022-11-02T07:40:20.204Z,15.29
2022-11-02T07:41:20.165Z,15.33
2022-11-02T07:42:20.188Z,15.36
2022-11-02T07:43:20.178Z,15.35
2022-11-02T07:44:20.151Z,15.31
2022-11-02T07:45:20.124Z,15.21
2022-11-02T07:46:20.108Z,15.37
2022-11-02T07:47:20.099Z,15.25
2022-11-02T07:48:20.113Z,15.19
2022-11-02T07:49:21.647Z,15.22
2022-11-02T07:50:20.075Z,15.22
2022-11-02T07:51:20.060Z,15.40
2022-11-02T07:52:20.068Z,15.42
2022-11-02T07:53:20.033Z,15.46
2022-11-02T07:54:20.044Z,15.51
2022-11-02T07:55:20.048Z,15.62
2022-11-02T07:56:20.033Z,15.68
2022-11-02T07:57:19.996Z,15.73
2022-11-02T07:58:19.980Z,15.70
2022-11-02T07:59:19.964Z,15.75
2022-11-02T08:00:19.956Z,15.76
2022-11-02T08:01:20.005Z,15.75
2022-11-02T08:02:19.992Z,15.77
2022-11-02T08:03:19.992Z,15.79
2022-11-02T08:04:19.911Z,15.73
2022-11-02T08:05:19.965Z,15.77
2022-11-02T08:06:19.905Z,15.75
2022-11-02T08:07:19.906Z,15.83
2022-11-02T08:08:19.856Z,15.80
2022-11-02T08:09:19.859Z,15.83
2022-11-02T08:10:19.868Z,15.86
2022-11-02T08:11:19.832Z,15.84
2022-11-02T08:12:19.813Z,15.83
2022-11-02T08:13:19.858Z,15.88
2022-11-02T08:14:19.801Z,15.83
2022-11-02T08:15:19.787Z,15.86
2022-11-02T08:16:19.788Z,15.79
2022-11-02T08:17:19.761Z,15.90
2022-11-02T08:18:19.749Z,15.94
2022-11-02T08:19:19.803Z,15.97
2022-11-02T08:20:19.720Z,15.95
2022-11-02T08:21:19.792Z,16.10
2022-11-02T08:22:19.697Z,16.17
2022-11-02T08:23:19.703Z,16.21
2022-11-02T08:24:19.716Z,16.33
2022-11-02T08:25:20.617Z,16.33
2022-11-02T08:26:19.713Z,16.26
2022-11-02T08:27:19.653Z,16.32
2022-11-02T08:28:19.663Z,16.42
2022-11-02T08:29:19.626Z,16.41
2022-11-02T08:30:19.649Z,16.38
2022-11-02T08:31:19.668Z,16.36
2022-11-02T08:32:19.607Z,16.42
2022-11-02T08:33:19.580Z,16.33
2022-11-02T08:34:19.655Z,16.35
2022-11-02T08:35:19.558Z,16.29
2022-11-02T08:36:19.548Z,16.32
2022-11-02T08:37:19.592Z,16.35
2022-11-02T08:38:19.537Z,16.35
2022-11-02T08:39:19.507Z,16.21
2022-11-02T08:40:19.517Z,16.31
2022-11-02T08:41:19.483Z,16.31
2022-11-02T08:42:19.525Z,16.38
2022-11-02T08:43:19.504Z,16.28
2022-11-02T08:44:19.480Z,16.32
2022-11-02T08:45:19.443Z,16.42
2022-11-02T08:46:19.438Z,16.43
2022-11-02T08:47:19.420Z,16.38
2022-11-02T08:48:19.410Z,16.43
2022-11-02T08:49:19.413Z,16.51
2022-11-02T08:50:19.431Z,16.56
2022-11-02T08:51:19.398Z,16.50
2022-11-02T08:52:19.365Z,16.65
2022-11-02T08:53:19.358Z,16.69
2022-11-02T08:54:19.361Z,16.58
2022-11-02T08:55:19.366Z,16.64
2022-11-02T08:56:19.323Z,16.76
2022-11-02T08:57:19.309Z,16.69
2022-11-02T08:58:19.335Z,16.74
2022-11-02T08:59:19.287Z,16.76
2022-11-02T09:00:19.270Z,16.83
2022-11-02T09:01:19.351Z,16.87
2022-11-02T09:02:19.367Z,16.94
2022-11-02T09:03:25.078Z,16.90
2022-11-02T09:04:20.227Z,16.87
2022-11-02T09:05:19.213Z,16.87
2022-11-02T09:06:19.207Z,16.90
2022-11-02T09:07:19.236Z,16.93
2022-11-02T09:08:19.251Z,16.97
2022-11-02T09:09:19.184Z,16.96
2022-11-02T09:10:19.158Z,17.04
2022-11-02T09:11:19.158Z,17.09
2022-11-02T09:12:19.135Z,17.06
2022-11-02T09:13:19.262Z,17.19
2022-11-02T09:14:19.193Z,17.14
2022-11-02T09:15:19.121Z,17.27
2022-11-02T09:16:19.090Z,17.33
2022-11-02T09:17:19.080Z,17.26
2022-11-02T09:18:19.077Z,17.41
2022-11-02T09:19:19.145Z,17.38
2022-11-02T09:20:19.051Z,17.41
2022-11-02T09:21:19.037Z,17.41
2022-11-02T09:22:19.032Z,17.42
2022-11-02T09:23:19.014Z,17.39
2022-11-02T09:24:19.004Z,17.42
2022-11-02T09:25:18.998Z,17.36
2022-11-02T09:26:18.978Z,17.46
2022-11-02T09:27:18.979Z,17.33
2022-11-02T09:28:18.965Z,17.52
2022-11-02T09:29:19.000Z,17.42
2022-11-02T09:30:18.949Z,17.59
2022-11-02T09:31:18.954Z,17.54
2022-11-02T09:32:18.912Z,17.52
2022-11-02T09:33:18.898Z,17.51
2022-11-02T09:34:19.023Z,17.49
2022-11-02T09:35:18.870Z,17.67
2022-11-02T09:36:18.870Z,17.71
2022-11-02T09:37:18.862Z,17.68
2022-11-02T09:38:18.832Z,17.70
2022-11-02T09:39:18.833Z,17.76
2022-11-02T09:40:18.815Z,17.68
2022-11-02T09:41:18.810Z,17.71
2022-11-02T09:42:18.794Z,17.79
2022-11-02T09:43:18.795Z,17.79
2022-11-02T09:44:18.840Z,17.79
2022-11-02T09:45:18.753Z,17.79
2022-11-02T09:46:18.777Z,17.87
2022-11-02T09:48:03.063Z,17.85
2022-11-02T09:48:24.842Z,17.89
2022-11-02T09:49:19.711Z,17.94
2022-11-02T09:50:18.769Z,17.94
2022-11-02T09:51:18.694Z,18.01
2022-11-02T09:52:18.678Z,17.95
2022-11-02T09:53:18.667Z,17.98
2022-11-02T09:54:18.675Z,18.07
2022-11-02T09:55:18.646Z,18.05
2022-11-02T09:56:18.646Z,18.08
2022-11-02T09:57:18.659Z,18.18
2022-11-02T09:58:18.612Z,18.20
2022-11-02T09:59:18.600Z,18.22
2022-11-02T10:00:18.637Z,18.23
2022-11-02T10:01:18.696Z,18.22
2022-11-02T10:02:18.657Z,18.37
2022-11-02T10:03:18.553Z,18.44
2022-11-02T10:04:18.541Z,18.34
2022-11-02T10:05:18.531Z,18.43
2022-11-02T10:06:18.533Z,18.38
2022-11-02T10:07:18.512Z,18.49
2022-11-02T10:08:18.498Z,18.52
2022-11-02T10:09:20.144Z,18.55
2022-11-02T10:10:19.149Z,18.52
2022-11-02T10:11:19.496Z,18.43
2022-11-02T10:12:18.491Z,18.47
2022-11-02T10:13:18.445Z,18.44
2022-11-02T10:14:18.431Z,18.55
2022-11-02T10:15:18.422Z,18.62
2022-11-02T10:16:18.408Z,18.59
2022-11-02T10:17:18.421Z,18.62
2022-11-02T10:18:19.171Z,18.63
2022-11-02T10:19:18.404Z,18.65
2022-11-02T10:20:18.429Z,18.58
2022-11-02T10:21:18.354Z,18.73
2022-11-02T10:22:18.334Z,18.71
2022-11-02T10:23:18.360Z,18.66
2022-11-02T10:24:18.357Z,18.73
2022-11-02T10:25:18.300Z,18.75
2022-11-02T10:26:18.302Z,18.71
2022-11-02T10:27:18.284Z,18.81
2022-11-02T10:28:18.352Z,18.74
2022-11-02T10:29:18.299Z,18.81
2022-11-02T10:30:18.257Z,18.81
2022-11-02T10:31:18.237Z,18.83
2022-11-02T10:32:18.226Z,18.88
2022-11-02T10:33:18.209Z,18.92
2022-11-02T10:34:18.300Z,18.92
2022-11-02T10:35:33.855Z,18.90
2022-11-02T10:36:19.755Z,19.00
2022-11-02T10:37:18.166Z,19.07
2022-11-02T10:38:18.239Z,19.00
2022-11-02T10:39:18.150Z,19.04
2022-11-02T10:40:18.132Z,19.08
2022-11-02T10:41:18.148Z,19.07
2022-11-02T10:42:18.113Z,19.08
2022-11-02T10:43:18.101Z,19.12
2022-11-02T10:44:18.108Z,19.12
2022-11-02T10:45:18.100Z,19.16
2022-11-02T10:46:18.064Z,19.18
2022-11-02T10:47:18.110Z,19.22
2022-11-02T10:48:18.044Z,19.24
2022-11-02T10:49:18.028Z,19.22
2022-11-02T10:50:18.047Z,19.24
2022-11-02T10:51:18.005Z,19.29
2022-11-02T10:52:18.014Z,19.30
2022-11-02T10:53:39.962Z,19.29
2022-11-02T10:54:22.872Z,19.30
2022-11-02T10:55:18.964Z,19.27
2022-11-02T10:56:17.973Z,19.34
2022-11-02T10:57:17.975Z,19.31
2022-11-02T10:58:17.931Z,19.34
2022-11-02T10:59:17.939Z,19.34
2022-11-02T11:00:17.905Z,19.34
2022-11-02T11:01:18.100Z,19.27
2022-11-02T11:02:17.887Z,19.34
2022-11-02T11:03:17.891Z,19.33
2022-11-02T11:04:17.870Z,19.51
2022-11-02T11:05:17.877Z,19.47
2022-11-02T11:06:17.871Z,19.41
2022-11-02T11:07:17.839Z,19.45
2022-11-02T11:08:17.813Z,19.40
2022-11-02T11:09:17.834Z,19.40
2022-11-02T11:10:17.793Z,19.36
2022-11-02T11:11:17.827Z,19.41
2022-11-02T11:12:17.769Z,19.39
2022-11-02T11:15:48.713Z,19.37
2022-11-02T11:16:20.615Z,19.40
2022-11-02T11:20:18.727Z,19.30
2022-11-02T11:21:17.713Z,19.37
2022-11-02T11:22:17.697Z,19.34
2022-11-02T11:23:17.647Z,19.31
2022-11-02T11:24:17.679Z,19.41
2022-11-02T11:25:19.071Z,19.39
2022-11-02T11:26:17.624Z,19.47
2022-11-02T11:27:17.604Z,19.41
2022-11-02T11:28:17.626Z,19.37
2022-11-02T11:29:17.573Z,19.27
2022-11-02T11:30:24.085Z,19.41
2022-11-02T11:31:18.547Z,19.36
2022-11-02T11:32:17.563Z,19.39
2022-11-02T11:33:17.541Z,19.44
2022-11-02T11:34:17.534Z,19.44
2022-11-02T11:35:17.515Z,19.44
2022-11-02T11:36:17.555Z,19.40
2022-11-02T11:37:18.171Z,19.39
2022-11-02T11:38:17.498Z,19.37
2022-11-02T11:39:17.467Z,19.45
2022-11-02T11:40:17.602Z,19.48
2022-11-02T11:41:17.524Z,19.45
2022-11-02T11:42:17.426Z,19.62
2022-11-02T11:43:17.415Z,19.71
2022-11-02T11:44:17.408Z,19.69
2022-11-02T11:45:17.453Z,19.66
2022-11-02T11:46:17.508Z,19.84
2022-11-02T11:47:17.375Z,19.84
2022-11-02T11:48:17.357Z,19.85
2022-11-02T11:49:17.372Z,19.81
2022-11-02T11:50:20.091Z,19.88
2022-11-02T11:51:22.910Z,20.00
2022-11-02T11:52:18.313Z,20.03
2022-11-02T11:53:17.305Z,20.11
2022-11-02T11:54:17.317Z,20.11
2022-11-02T11:55:17.408Z,20.14
2022-11-02T11:56:17.268Z,20.13
2022-11-02T11:57:17.286Z,20.13
2022-11-02T11:58:17.244Z,20.16
2022-11-02T11:59:17.240Z,20.22
2022-11-02T12:00:17.221Z,20.28
2022-11-02T12:01:17.342Z,20.29
2022-11-02T12:02:17.607Z,20.31
2022-11-02T12:03:17.254Z,20.36
2022-11-02T12:04:17.174Z,20.29
2022-11-02T12:05:17.165Z,20.40
2022-11-02T12:06:17.283Z,20.47
2022-11-02T12:07:17.147Z,20.55
2022-11-02T12:08:17.165Z,20.67
2022-11-02T12:09:17.129Z,20.84
2022-11-02T12:10:17.137Z,20.93
2022-11-02T12:11:19.207Z,20.96
2022-11-02T12:12:17.102Z,20.99
2022-11-02T12:13:17.080Z,20.97
2022-11-02T12:14:17.072Z,21.07
2022-11-02T12:15:17.112Z,21.02
2022-11-02T12:16:17.039Z,21.06
2022-11-02T12:17:17.062Z,20.99
2022-11-02T12:18:17.019Z,20.96
2022-11-02T12:19:17.002Z,20.95
2022-11-02T12:20:17.023Z,20.82
2022-11-02T12:21:17.000Z,20.84
2022-11-02T12:22:16.986Z,20.80
2022-11-02T12:23:16.964Z,20.81
2022-11-02T12:24:16.975Z,20.72
2022-11-02T12:25:16.943Z,20.59
2022-11-02T12:26:17.021Z,20.59
2022-11-02T12:27:16.936Z,20.48
2022-11-02T12:28:16.926Z,20.39
2022-11-02T12:29:16.893Z,20.37
2022-11-02T12:30:16.883Z,20.34
2022-11-02T12:31:16.916Z,20.21
2022-11-02T12:32:16.954Z,20.16
2022-11-02T12:33:16.864Z,20.13
2022-11-02T12:34:16.841Z,20.00
2022-11-02T12:35:28.975Z,19.88
2022-11-02T12:36:17.818Z,19.95
2022-11-02T12:37:40.518Z,19.96
2022-11-02T12:38:17.833Z,19.89
2022-11-02T12:39:16.801Z,19.86
2022-11-02T12:40:16.901Z,19.86
2022-11-02T12:41:16.781Z,19.79
2022-11-02T12:42:16.879Z,19.81
2022-11-02T12:43:16.765Z,19.69
2022-11-02T12:44:16.825Z,19.70
2022-11-02T12:45:16.871Z,19.77
2022-11-02T12:46:16.696Z,19.69
2022-11-02T12:47:16.711Z,19.71
2022-11-02T12:48:16.680Z,19.64
2022-11-02T12:49:16.663Z,19.71
2022-11-02T12:50:16.701Z,19.76
2022-11-02T12:51:16.647Z,19.70
2022-11-02T12:52:16.637Z,19.64
2022-11-02T12:53:16.650Z,19.64
2022-11-02T12:54:16.607Z,19.67
2022-11-02T12:55:17.469Z,19.64
2022-11-02T12:56:16.639Z,19.63
2022-11-02T12:57:16.574Z,19.67
2022-11-02T12:58:16.587Z,19.67
2022-11-02T12:59:16.564Z,19.67